createdAt,value
2023-05-19T00:04:52.533Z,40.4
2023-05-19T00:10:58.524Z,40.4
2023-05-19T00:17:04.099Z,40.4
2023-05-19T00:23:10.088Z,40.4
2023-05-19T00:29:15.636Z,40.4
2023-05-19T00:35:21.435Z,40.5
2023-05-19T00:41:30.269Z,40.4
2023-05-19T00:47:36.148Z,40.4
2023-05-19T00:53:41.842Z,40.4
2023-05-19T00:59:47.386Z,40.5
2023-05-19T01:05:53.011Z,40.5
2023-05-19T01:11:59.181Z,40.5
2023-05-19T01:18:04.434Z,40.5
2023-05-19T01:24:11.138Z,40.5
2023-05-19T01:30:16.287Z,40.6
2023-05-19T01:36:22.257Z,40.6
2023-05-19T01:42:28.038Z,40.6
2023-05-19T01:48:33.815Z,40.6
2023-05-19T01:54:39.676Z,40.6
2023-05-19T02:00:45.389Z,40.7
2023-05-19T02:06:51.569Z,40.7
2023-05-19T02:12:57.351Z,40.7
2023-05-19T02:19:03.355Z,40.7
2023-05-19T02:25:08.787Z,40.7
2023-05-19T02:31:14.296Z,40.7
2023-05-19T02:37:19.899Z,40.8
2023-05-19T02:43:25.068Z,40.8
2023-05-19T02:49:30.581Z,40.8
2023-05-19T02:55:36.835Z,40.8
2023-05-19T03:01:42.978Z,40.8
2023-05-19T03:07:48.926Z,40.8
2023-05-19T03:13:54.908Z,40.9
2023-05-19T03:20:00.900Z,40.9
2023-05-19T03:26:06.678Z,40.9
2023-05-19T03:32:13.106Z,40.9
2023-05-19T03:38:19.094Z,40.9
2023-05-19T03:44:24.228Z,40.9
2023-05-19T03:50:30.366Z,40.9
2023-05-19T03:56:35.854Z,40.9
2023-05-19T04:02:41.829Z,40.9
2023-05-19T04:08:47.799Z,40.9
2023-05-19T04:14:53.767Z,40.9
2023-05-19T04:20:59.480Z,40.9
2023-05-19T04:27:05.142Z,40.9
2023-05-19T04:33:11.111Z,40.9
2023-05-19T04:39:16.261Z,40.9
2023-05-19T04:45:21.598Z,40.9
2023-05-19T04:51:27.145Z,40.9
2023-05-19T04:57:33.344Z,40.9
2023-05-19T05:03:39.384Z,41
2023-05-19T05:09:44.493Z,40.9
2023-05-19T05:15:49.845Z,41
2023-05-19T05:21:55.867Z,41
2023-05-19T05:28:01.471Z,41
2023-05-19T05:34:07.038Z,41
2023-05-19T05:40:12.763Z,41
2023-05-19T05:46:18.194Z,41
2023-05-19T05:52:23.735Z,41
2023-05-19T05:58:29.536Z,41
2023-05-19T06:04:35.529Z,41
2023-05-19T06:10:41.240Z,41
2023-05-19T06:16:47.836Z,41
2023-05-19T06:22:53.828Z,41
2023-05-19T06:28:59.248Z,41
2023-05-19T06:35:04.797Z,41
2023-05-19T06:41:10.762Z,41
2023-05-19T06:47:16.830Z,41
2023-05-19T06:53:22.495Z,41
2023-05-19T06:59:28.270Z,41
2023-05-19T07:05:33.704Z,41
2023-05-19T07:11:39.848Z,41
2023-05-19T07:17:45.711Z,41
2023-05-19T07:23:51.826Z,41
2023-05-19T07:29:57.846Z,41
2023-05-19T07:36:03.779Z,41
2023-05-19T07:42:09.735Z,41
2023-05-19T07:48:16.152Z,41
2023-05-19T07:54:21.549Z,41
2023-05-19T08:00:26.875Z,41
2023-05-19T08:06:32.841Z,41
2023-05-19T08:12:38.215Z,41
2023-05-19T08:18:44.045Z,41.1
2023-05-19T08:24:49.842Z,41.1
2023-05-19T08:30:55.635Z,41.1
2023-05-19T08:37:01.606Z,41.1
2023-05-19T08:43:07.530Z,41.1
2023-05-19T08:49:13.353Z,41.1
2023-05-19T08:55:19.101Z,41.1
2023-05-19T09:01:25.498Z,41.1
2023-05-19T09:07:31.314Z,41.1
2023-05-19T09:13:37.026Z,41.2
2023-05-19T09:19:42.860Z,41.1
2023-05-19T09:25:48.596Z,41.2
2023-05-19T09:31:54.836Z,41.2
2023-05-19T09:38:00.559Z,41.2
2023-05-19T09:44:06.330Z,41.2
2023-05-19T09:50:12.529Z,41.2
2023-05-19T09:56:18.333Z,41.2
2023-05-19T10:02:23.954Z,41.2
2023-05-19T10:08:30.794Z,41.2
2023-05-19T10:14:36.279Z,41.2
2023-05-19T10:20:41.591Z,41.2
2023-05-19T10:26:47.643Z,41.2
2023-05-19T10:32:53.994Z,41.2
2023-05-19T10:39:00.011Z,41.3
2023-05-19T10:45:05.427Z,41.2
2023-05-19T10:51:11.969Z,41.3
2023-05-19T10:57:17.352Z,41.3
2023-05-19T11:03:22.795Z,41.3
2023-05-19T11:09:42.611Z,41.3
2023-05-19T11:15:48.364Z,41.3
2023-05-19T11:21:53.990Z,41.3
2023-05-19T11:27:59.283Z,41.3
2023-05-19T11:34:05.123Z,41.3
2023-05-19T11:40:10.861Z,41.3
2023-05-19T11:46:16.075Z,41.3
2023-05-19T11:52:21.640Z,41.3
2023-05-19T11:58:27.153Z,41.3
2023-05-19T12:04:33.002Z,41.3
2023-05-19T12:10:38.925Z,41.3
2023-05-19T12:16:44.697Z,41.4
2023-05-19T12:22:50.259Z,41.4
2023-05-19T12:28:55.887Z,41.4
2023-05-19T12:35:01.419Z,41.4
2023-05-19T12:41:07.182Z,41.3
2023-05-19T12:47:13.380Z,41.3
2023-05-19T12:53:18.698Z,41.3
2023-05-19T12:59:41.117Z,41.3
2023-05-19T13:05:46.676Z,41.3
2023-05-19T13:11:52.249Z,41.4
2023-05-19T13:17:57.935Z,41.4
2023-05-19T13:24:03.864Z,41.4
2023-05-19T13:30:09.246Z,41.3
2023-05-19T13:36:15.365Z,41.4
2023-05-19T13:42:20.796Z,41.4
2023-05-19T13:48:26.356Z,41.5
2023-05-19T13:54:31.738Z,41.3
2023-05-19T14:00:37.856Z,41.4
2023-05-19T14:06:43.652Z,41.4
2023-05-19T14:13:37.286Z,41.4
2023-05-19T14:19:44.745Z,41.4
2023-05-19T14:25:50.355Z,41.4
2023-05-19T14:31:56.181Z,41.4
2023-05-19T14:38:02.222Z,41.4
2023-05-19T14:44:07.715Z,41.5
2023-05-19T14:50:13.093Z,41.5
2023-05-19T14:56:18.665Z,41.4
2023-05-19T15:02:24.278Z,41.5
2023-05-19T15:08:30.169Z,41.5
2023-05-19T15:14:35.945Z,41.5
2023-05-19T15:20:41.620Z,41.6
2023-05-19T15:26:46.928Z,41.5
2023-05-19T15:32:52.348Z,41.5
2023-05-19T15:38:57.677Z,41.5
2023-05-19T15:45:03.416Z,41.4
2023-05-19T15:51:09.795Z,41.5
2023-05-19T15:57:15.214Z,41.5
2023-05-19T16:03:21.363Z,41.5
2023-05-19T16:09:26.933Z,41.5
2023-05-19T16:15:32.542Z,41.7
2023-05-19T16:21:38.288Z,41.5
2023-05-19T16:27:44.268Z,41.6
2023-05-19T16:33:49.488Z,41.5
2023-05-19T16:39:55.445Z,41.6
2023-05-19T16:46:01.391Z,41.6
2023-05-19T16:52:06.745Z,41.6
2023-05-19T16:58:12.564Z,41.6
2023-05-19T17:04:17.756Z,41.7
2023-05-19T17:10:23.049Z,41.6
2023-05-19T17:16:29.255Z,41.7
2023-05-19T17:22:34.814Z,41.7
2023-05-19T17:28:40.656Z,41.7
2023-05-19T17:34:46.205Z,41.7
2023-05-19T17:40:51.786Z,41.8
2023-05-19T17:46:57.222Z,41.9
2023-05-19T17:53:03.086Z,41.8
2023-05-19T17:59:08.735Z,41.9
2023-05-19T18:05:14.429Z,41.8
2023-05-19T18:11:19.795Z,41.9
2023-05-19T18:17:25.488Z,41.9
2023-05-19T18:23:31.161Z,41.9
2023-05-19T18:29:36.998Z,41.9
2023-05-19T18:35:45.011Z,41.9
2023-05-19T18:41:50.387Z,42
2023-05-19T18:47:56.366Z,42
2023-05-19T18:54:02.153Z,42
2023-05-19T19:00:07.667Z,42
2023-05-19T19:06:13.508Z,42
2023-05-19T19:12:21.280Z,42.1
2023-05-19T19:18:27.150Z,42.2
2023-05-19T19:24:33.232Z,42.2
2023-05-19T19:30:39.703Z,42.3
2023-05-19T19:36:45.402Z,42.2
2023-05-19T19:42:50.390Z,42.3
2023-05-19T19:48:56.546Z,42.3
2023-05-19T19:55:02.157Z,42.2
2023-05-19T20:01:07.515Z,42.3
2023-05-19T20:07:13.472Z,42.3
2023-05-19T20:13:19.270Z,42.2
2023-05-19T20:19:25.100Z,42.3
2023-05-19T20:25:31.327Z,42.3
2023-05-19T20:31:37.640Z,42.4
2023-05-19T20:37:43.449Z,42.3
2023-05-19T20:43:49.974Z,42.4
2023-05-19T20:49:55.947Z,42.4
2023-05-19T20:56:01.785Z,42.4
2023-05-19T21:02:07.992Z,42.4
2023-05-19T21:08:13.936Z,42.5
2023-05-19T21:14:19.496Z,42.5
2023-05-19T21:20:25.453Z,42.5
2023-05-19T21:26:31.663Z,42.5
2023-05-19T21:32:37.497Z,42.5
2023-05-19T21:38:42.809Z,42.5
2023-05-19T21:44:48.803Z,42.5
2023-05-19T21:50:54.362Z,42.6
2023-05-19T21:57:00.333Z,42.6
2023-05-19T22:03:06.182Z,42.6
2023-05-19T22:09:11.696Z,42.7
2023-05-19T22:15:17.870Z,42.7
2023-05-19T22:21:23.110Z,42.7
2023-05-19T22:27:29.042Z,42.7
2023-05-19T22:33:34.816Z,42.9
2023-05-19T22:39:40.652Z,42.8
2023-05-19T22:45:46.787Z,42.8
2023-05-19T22:51:52.937Z,42.8
2023-05-19T22:57:58.993Z,43
2023-05-19T23:04:05.002Z,43
2023-05-19T23:10:10.745Z,43
2023-05-19T23:16:16.499Z,43.2
2023-05-19T23:22:21.862Z,43.3
2023-05-19T23:28:27.912Z,43.3
2023-05-19T23:34:33.014Z,43.5
2023-05-19T23:40:38.546Z,43.4
2023-05-19T23:46:44.817Z,43.4
2023-05-19T23:52:50.128Z,43.5
2023-05-19T23:58:55.980Z,43.6
